createdAt,value
2017-09-19T00:01:43.025Z,10.30
2017-09-19T00:04:12.426Z,10.30
2017-09-19T00:06:41.628Z,10.30
2017-09-19T00:09:10.843Z,10.30
2017-09-19T00:11:39.301Z,10.20
2017-09-19T00:14:07.845Z,10.30
2017-09-19T00:16:36.257Z,10.20
2017-09-19T00:19:05.429Z,10.20
2017-09-19T00:21:33.843Z,10.20
2017-09-19T00:24:03.039Z,10.30
2017-09-19T00:26:31.446Z,10.30
2017-09-19T00:28:59.859Z,10.20
2017-09-19T00:31:28.284Z,10.30
2017-09-19T00:33:57.484Z,10.20
2017-09-19T00:36:26.658Z,10.20
2017-09-19T00:38:54.985Z,10.20
2017-09-19T00:41:23.449Z,10.20
2017-09-19T00:43:51.869Z,10.20
2017-09-19T00:46:20.265Z,10.20
2017-09-19T00:48:48.681Z,10.30
2017-09-19T00:51:17.505Z,10.20
2017-09-19T00:53:46.690Z,10.20
2017-09-19T00:56:14.453Z,10.20
2017-09-19T00:58:42.501Z,10.20
2017-09-19T01:01:10.961Z,10.20
2017-09-19T01:03:39.390Z,10.20
2017-09-19T01:06:07.788Z,10.20
2017-09-19T01:08:36.206Z,10.20
2017-09-19T01:11:04.694Z,10.20
2017-09-19T01:13:33.130Z,10.20
2017-09-19T01:16:02.104Z,10.10
2017-09-19T01:18:30.566Z,10.10
2017-09-19T01:20:59.398Z,10.10
2017-09-19T01:23:27.457Z,10.10
2017-09-19T01:25:55.598Z,10.10
2017-09-19T01:28:24.421Z,10.10
2017-09-19T01:30:52.813Z,10.10
2017-09-19T01:33:21.233Z,10.10
2017-09-19T01:35:49.633Z,10.00
2017-09-19T01:38:18.811Z,10.10
2017-09-19T01:40:47.236Z,10.10
2017-09-19T01:43:15.634Z,10.10
2017-09-19T01:45:44.065Z,10.20
2017-09-19T01:48:12.626Z,10.10
2017-09-19T01:50:41.133Z,10.00
2017-09-19T01:53:10.380Z,10.10
2017-09-19T01:55:39.077Z,10.10
2017-09-19T01:58:07.610Z,10.10
2017-09-19T02:00:36.862Z,10.00
2017-09-19T02:03:05.366Z,10.00
2017-09-19T02:05:33.827Z,10.00
2017-09-19T02:08:02.330Z,10.00
2017-09-19T02:10:30.834Z,10.00
2017-09-19T02:13:00.051Z,9.90
2017-09-19T02:15:28.563Z,9.90
2017-09-19T02:17:57.025Z,9.90
2017-09-19T02:20:25.734Z,9.90
2017-09-19T02:22:54.258Z,9.90
2017-09-19T02:25:22.713Z,9.90
2017-09-19T02:27:51.145Z,9.90
2017-09-19T02:30:19.684Z,9.80
2017-09-19T02:32:48.169Z,9.80
2017-09-19T02:35:16.611Z,9.80
2017-09-19T02:37:45.075Z,9.80
2017-09-19T02:40:13.499Z,9.80
2017-09-19T02:42:41.960Z,9.80
2017-09-19T02:45:10.405Z,9.80
2017-09-19T02:47:39.588Z,9.80
2017-09-19T02:50:07.987Z,9.80
2017-09-19T02:52:37.165Z,9.80
2017-09-19T02:55:05.566Z,9.80
2017-09-19T02:57:34.745Z,9.70
2017-09-19T03:00:03.162Z,9.70
2017-09-19T03:02:31.610Z,9.70
2017-09-19T03:05:00.081Z,9.60
2017-09-19T03:07:28.507Z,9.60
2017-09-19T03:09:56.904Z,9.50
2017-09-19T03:12:25.301Z,9.60
2017-09-19T03:14:53.729Z,9.50
2017-09-19T03:17:22.893Z,9.30
2017-09-19T03:19:51.291Z,9.30
2017-09-19T03:22:19.697Z,9.20
2017-09-19T03:24:48.857Z,9.20
2017-09-19T03:27:17.270Z,9.20
2017-09-19T03:29:46.362Z,9.20
2017-09-19T03:32:14.801Z,9.20
2017-09-19T03:34:43.209Z,9.10
2017-09-19T03:37:11.629Z,9.10
2017-09-19T03:39:40.025Z,9.10
2017-09-19T03:42:08.417Z,9.10
2017-09-19T03:44:36.835Z,9.10
2017-09-19T03:47:05.247Z,9.00
2017-09-19T03:49:33.647Z,9.00
2017-09-19T03:52:02.058Z,9.00
2017-09-19T03:54:30.474Z,8.90
2017-09-19T03:56:59.646Z,9.00
2017-09-19T03:59:28.051Z,9.00
2017-09-19T04:01:56.542Z,8.90
2017-09-19T04:04:25.229Z,9.00
2017-09-19T04:06:53.910Z,8.90
2017-09-19T04:09:22.682Z,8.80
2017-09-19T04:11:51.401Z,8.80
2017-09-19T04:14:20.061Z,8.70
2017-09-19T04:16:48.750Z,8.70
2017-09-19T04:19:17.418Z,8.70
2017-09-19T04:21:46.081Z,8.80
2017-09-19T04:24:14.804Z,8.70
2017-09-19T04:26:43.323Z,8.70
2017-09-19T04:29:12.573Z,8.60
2017-09-19T04:31:41.253Z,8.60
2017-09-19T04:34:09.666Z,8.50
2017-09-19T04:36:38.147Z,8.50
2017-09-19T04:39:06.645Z,8.60
2017-09-19T04:41:35.158Z,8.60
2017-09-19T04:44:03.389Z,8.50
2017-09-19T04:46:32.084Z,8.60
2017-09-19T04:49:00.873Z,8.50
2017-09-19T04:51:29.554Z,8.40
2017-09-19T04:53:58.246Z,8.40
2017-09-19T04:56:27.220Z,8.40
2017-09-19T04:58:56.196Z,8.40
2017-09-19T05:01:25.009Z,8.40
2017-09-19T05:03:53.737Z,8.40
2017-09-19T05:06:23.224Z,8.30
2017-09-19T05:08:52.017Z,8.30
2017-09-19T05:11:20.775Z,8.30
2017-09-19T05:13:49.489Z,8.40
2017-09-19T05:16:18.253Z,8.40
2017-09-19T05:18:47.208Z,8.40
2017-09-19T05:21:15.711Z,8.40
2017-09-19T05:23:44.457Z,8.30
2017-09-19T05:26:13.938Z,8.30
2017-09-19T05:28:42.641Z,8.30
2017-09-19T05:31:11.417Z,8.40
2017-09-19T05:33:40.152Z,8.30
2017-09-19T05:36:08.931Z,8.30
2017-09-19T05:38:36.957Z,8.30
2017-09-19T05:41:05.703Z,8.30
2017-09-19T05:43:34.499Z,8.30
2017-09-19T05:46:03.221Z,8.40
2017-09-19T05:48:31.670Z,8.30
2017-09-19T05:51:00.377Z,8.30
2017-09-19T05:53:29.061Z,8.40
2017-09-19T05:55:57.777Z,8.40
2017-09-19T05:58:26.482Z,8.40
2017-09-19T06:00:55.204Z,8.40
2017-09-19T06:03:23.904Z,8.40
2017-09-19T06:05:52.594Z,8.40
2017-09-19T06:08:21.440Z,8.40
2017-09-19T06:10:50.318Z,8.40
2017-09-19T06:13:19.025Z,8.40
2017-09-19T06:15:47.764Z,8.40
2017-09-19T06:18:16.626Z,8.30
2017-09-19T06:20:45.330Z,8.30
2017-09-19T06:23:14.041Z,8.30
2017-09-19T06:25:42.729Z,8.40
2017-09-19T06:28:11.420Z,8.40
2017-09-19T06:30:40.118Z,8.30
2017-09-19T06:33:08.534Z,8.40
2017-09-19T06:35:38.018Z,8.40
2017-09-19T06:38:07.475Z,8.50
2017-09-19T06:40:35.824Z,8.40
2017-09-19T06:43:04.585Z,8.40
2017-09-19T06:45:33.254Z,8.40
2017-09-19T06:48:01.946Z,8.40
2017-09-19T06:50:30.425Z,8.50
2017-09-19T06:52:58.955Z,8.40
2017-09-19T06:55:28.382Z,8.40
2017-09-19T06:57:57.045Z,8.40
2017-09-19T07:00:26.514Z,8.50
2017-09-19T07:02:55.181Z,8.50
2017-09-19T07:05:23.871Z,8.50
2017-09-19T07:07:52.562Z,8.50
2017-09-19T07:10:21.286Z,8.50
2017-09-19T07:12:49.949Z,8.50
2017-09-19T07:15:18.622Z,8.50
2017-09-19T07:17:47.341Z,8.50
2017-09-19T07:20:16.778Z,8.50
2017-09-19T07:22:45.444Z,8.50
2017-09-19T07:25:14.944Z,8.50
2017-09-19T07:27:44.377Z,8.40
2017-09-19T07:30:12.892Z,8.40
2017-09-19T07:32:41.428Z,8.50
2017-09-19T07:35:10.103Z,8.50
2017-09-19T07:37:38.787Z,8.40
2017-09-19T07:40:08.452Z,8.50
2017-09-19T07:42:37.178Z,8.50
2017-09-19T07:45:06.644Z,8.40
2017-09-19T07:47:35.387Z,8.40
2017-09-19T07:50:04.846Z,8.40
2017-09-19T07:52:33.542Z,8.40
2017-09-19T07:55:02.289Z,8.40
2017-09-19T07:57:30.787Z,8.40
2017-09-19T07:59:59.293Z,8.40
2017-09-19T08:02:28.117Z,8.40
2017-09-19T08:04:56.793Z,8.40
2017-09-19T08:07:25.470Z,8.40
2017-09-19T08:09:54.166Z,8.50
2017-09-19T08:12:22.874Z,8.40
2017-09-19T08:14:51.575Z,8.50
2017-09-19T08:17:20.274Z,8.50
2017-09-19T08:19:48.941Z,8.50
2017-09-19T08:22:17.612Z,8.50
2017-09-19T08:24:47.061Z,8.60
2017-09-19T08:27:15.747Z,8.50
2017-09-19T08:29:44.467Z,8.60
2017-09-19T08:32:13.173Z,8.70
2017-09-19T08:34:42.623Z,8.80
2017-09-19T08:37:11.306Z,8.70
2017-09-19T08:39:40.026Z,8.70
2017-09-19T08:42:08.726Z,8.70
2017-09-19T08:44:37.432Z,8.70
2017-09-19T08:47:06.886Z,8.70
2017-09-19T08:49:35.577Z,8.70
2017-09-19T08:52:04.085Z,8.70
2017-09-19T08:54:32.589Z,8.60
2017-09-19T08:57:01.865Z,8.70
2017-09-19T08:59:30.547Z,8.60
2017-09-19T09:01:59.232Z,8.60
2017-09-19T09:04:27.946Z,8.60
2017-09-19T09:06:56.646Z,8.60
2017-09-19T09:09:26.122Z,8.60
2017-09-19T09:11:54.866Z,8.60
2017-09-19T09:14:23.550Z,8.60
2017-09-19T09:16:52.223Z,8.60
2017-09-19T09:19:20.953Z,8.60
2017-09-19T09:21:49.655Z,8.60
2017-09-19T09:24:18.919Z,8.50
2017-09-19T09:26:47.609Z,8.40
2017-09-19T09:29:16.298Z,8.50
2017-09-19T09:31:51.877Z,8.50
2017-09-19T09:34:20.558Z,8.50
2017-09-19T09:36:49.513Z,8.50
2017-09-19T09:39:18.187Z,8.40
2017-09-19T09:41:46.875Z,8.50
2017-09-19T09:44:15.542Z,8.60
2017-09-19T09:46:44.041Z,8.70
2017-09-19T09:49:12.979Z,8.70
2017-09-19T09:51:41.484Z,8.60
2017-09-19T09:54:09.965Z,8.50
2017-09-19T09:56:38.550Z,8.60
2017-09-19T09:59:07.226Z,8.60
2017-09-19T10:01:35.954Z,8.60
2017-09-19T10:04:04.699Z,8.60
2017-09-19T10:06:33.393Z,8.60
2017-09-19T10:09:02.090Z,8.60
2017-09-19T10:11:30.798Z,8.60
2017-09-19T10:14:00.234Z,8.50
2017-09-19T10:16:28.902Z,8.50
2017-09-19T10:18:57.606Z,8.50
2017-09-19T10:21:26.267Z,8.50
2017-09-19T10:23:54.707Z,8.50
2017-09-19T10:26:23.423Z,8.40
2017-09-19T10:28:52.204Z,8.50
2017-09-19T10:31:20.885Z,8.50
2017-09-19T10:33:49.553Z,8.50
2017-09-19T10:36:18.234Z,8.50
2017-09-19T10:38:46.977Z,8.50
2017-09-19T10:41:15.651Z,8.50
2017-09-19T10:43:44.346Z,8.60
2017-09-19T10:46:13.780Z,8.60
2017-09-19T10:48:42.256Z,8.50
2017-09-19T10:51:11.070Z,8.60
2017-09-19T10:53:39.757Z,8.60
2017-09-19T10:56:08.453Z,8.50
2017-09-19T10:58:37.110Z,8.50
2017-09-19T11:01:05.814Z,8.50
2017-09-19T11:03:34.554Z,8.60
2017-09-19T11:06:03.993Z,8.50
2017-09-19T11:08:32.679Z,8.50
2017-09-19T11:11:01.373Z,8.50
2017-09-19T11:13:30.025Z,8.60
2017-09-19T11:15:58.450Z,8.50
2017-09-19T11:18:27.149Z,8.60
2017-09-19T11:20:55.826Z,8.70
2017-09-19T11:23:24.548Z,8.60
2017-09-19T11:25:52.801Z,8.70
2017-09-19T11:28:21.246Z,8.60
2017-09-19T11:30:49.743Z,8.70
2017-09-19T11:33:18.461Z,8.60
2017-09-19T11:35:47.201Z,8.60
2017-09-19T11:38:15.869Z,8.60
2017-09-19T11:40:45.305Z,8.60
2017-09-19T11:43:14.018Z,8.60
2017-09-19T11:45:42.694Z,8.60
2017-09-19T11:48:11.417Z,8.60
2017-09-19T11:50:40.893Z,8.50
2017-09-19T11:53:09.397Z,8.50
2017-09-19T11:55:37.904Z,8.60
2017-09-19T11:58:07.371Z,8.40
2017-09-19T12:00:36.074Z,8.40
2017-09-19T12:03:04.742Z,8.40
2017-09-19T12:05:33.429Z,8.40
2017-09-19T12:08:02.107Z,8.40
2017-09-19T12:10:30.799Z,8.40
2017-09-19T12:12:59.497Z,8.30
2017-09-19T12:15:28.204Z,8.40
2017-09-19T12:17:56.894Z,8.40
2017-09-19T12:20:26.375Z,8.30
2017-09-19T12:22:55.093Z,8.30
2017-09-19T12:25:24.025Z,8.40
2017-09-19T12:27:52.718Z,8.40
2017-09-19T12:30:21.418Z,8.50
2017-09-19T12:32:50.146Z,8.40
2017-09-19T12:35:19.580Z,8.40
2017-09-19T12:37:48.261Z,8.30
2017-09-19T12:40:17.618Z,8.40
2017-09-19T12:42:46.285Z,8.30
2017-09-19T12:45:14.957Z,8.40
2017-09-19T12:47:43.666Z,8.40
2017-09-19T12:50:12.354Z,8.40
2017-09-19T12:52:40.854Z,8.40
2017-09-19T12:55:09.639Z,8.50
2017-09-19T12:57:38.368Z,8.50
2017-09-19T13:00:07.094Z,8.50
2017-09-19T13:02:36.019Z,8.50
2017-09-19T13:05:05.288Z,8.50
2017-09-19T13:07:33.974Z,8.40
2017-09-19T13:10:02.710Z,8.50
2017-09-19T13:12:32.138Z,8.50
2017-09-19T13:15:02.266Z,8.60
2017-09-19T13:17:30.951Z,8.60
2017-09-19T13:20:00.193Z,8.50
2017-09-19T13:22:28.628Z,8.50
2017-09-19T13:24:58.106Z,8.40
2017-09-19T13:27:27.559Z,8.50
2017-09-19T13:29:56.246Z,8.50
2017-09-19T13:32:36.062Z,8.40
2017-09-19T13:35:05.207Z,8.40
2017-09-19T13:37:33.932Z,8.40
2017-09-19T13:40:02.644Z,8.40
2017-09-19T13:42:31.381Z,8.40
2017-09-19T13:44:59.895Z,8.40
2017-09-19T13:47:28.617Z,8.40
2017-09-19T13:49:57.336Z,8.40
2017-09-19T13:52:26.075Z,8.40
2017-09-19T13:54:54.802Z,8.40
2017-09-19T13:57:23.553Z,8.40
2017-09-19T13:59:52.290Z,8.40
2017-09-19T14:02:21.778Z,8.40
2017-09-19T14:04:50.463Z,8.40
2017-09-19T14:07:19.154Z,8.40
2017-09-19T14:09:47.834Z,8.50
2017-09-19T14:12:16.522Z,8.40
2017-09-19T14:14:45.215Z,8.50
2017-09-19T14:17:13.905Z,8.50
2017-09-19T14:19:42.889Z,8.60
2017-09-19T14:22:11.572Z,8.60
2017-09-19T14:24:40.310Z,8.60
2017-09-19T14:27:09.754Z,8.50
2017-09-19T14:29:38.420Z,8.50
2017-09-19T14:32:07.105Z,8.60
2017-09-19T14:34:35.528Z,8.60
2017-09-19T14:37:04.214Z,8.60
2017-09-19T14:39:32.886Z,8.50
2017-09-19T14:42:01.585Z,8.40
2017-09-19T14:44:30.256Z,8.50
2017-09-19T14:46:58.933Z,8.50
2017-09-19T14:49:27.622Z,8.40
2017-09-19T14:51:56.558Z,8.40
2017-09-19T14:54:25.221Z,8.40
2017-09-19T14:56:53.910Z,8.50
2017-09-19T14:59:22.581Z,8.40
2017-09-19T15:01:51.261Z,8.40
2017-09-19T15:04:20.125Z,8.40
2017-09-19T15:06:48.909Z,8.40
2017-09-19T15:09:18.378Z,8.40
2017-09-19T15:11:47.082Z,8.30
2017-09-19T15:14:15.761Z,8.30
2017-09-19T15:16:44.429Z,8.30
2017-09-19T15:19:13.118Z,8.40
2017-09-19T15:21:41.793Z,8.30
2017-09-19T15:24:10.459Z,8.30
2017-09-19T15:26:39.136Z,8.40
2017-09-19T15:29:07.806Z,8.30
2017-09-19T15:31:36.473Z,8.40
2017-09-19T15:34:05.153Z,8.30
2017-09-19T15:36:33.866Z,8.40
2017-09-19T15:39:02.607Z,8.40
2017-09-19T15:41:31.302Z,8.30
2017-09-19T15:43:59.969Z,8.30
2017-09-19T15:46:28.652Z,8.30
2017-09-19T15:48:57.313Z,8.20
2017-09-19T15:51:25.717Z,8.30
2017-09-19T15:53:54.426Z,8.30
2017-09-19T15:56:23.094Z,8.20
2017-09-19T15:58:51.560Z,8.20
2017-09-19T16:01:19.994Z,8.20
2017-09-19T16:03:48.391Z,8.20
2017-09-19T16:06:16.787Z,8.20
2017-09-19T16:08:45.237Z,8.20
2017-09-19T16:11:13.682Z,8.20
2017-09-19T16:13:42.104Z,8.20
2017-09-19T16:16:10.609Z,8.20
2017-09-19T16:18:39.082Z,8.20
2017-09-19T16:21:07.535Z,8.10
2017-09-19T16:23:36.025Z,8.10
2017-09-19T16:26:04.480Z,8.10
2017-09-19T16:28:32.943Z,8.10
2017-09-19T16:31:01.426Z,8.20
2017-09-19T16:33:29.896Z,8.20
2017-09-19T16:35:58.652Z,8.10
2017-09-19T16:38:27.106Z,8.10
2017-09-19T16:40:55.795Z,8.10
2017-09-19T16:43:24.194Z,8.10
2017-09-19T16:45:52.876Z,8.10
2017-09-19T16:48:21.297Z,8.10
2017-09-19T16:50:49.689Z,8.10
2017-09-19T16:53:18.097Z,8.00
2017-09-19T16:55:46.515Z,8.10
2017-09-19T16:58:15.166Z,8.00
2017-09-19T17:00:44.353Z,8.00
2017-09-19T17:03:13.010Z,8.00
2017-09-19T17:05:41.402Z,8.10
2017-09-19T17:08:09.835Z,8.10
2017-09-19T17:10:38.242Z,8.10
2017-09-19T17:13:06.686Z,8.00
2017-09-19T17:15:35.605Z,8.00
2017-09-19T17:18:04.001Z,8.10
2017-09-19T17:20:33.429Z,8.00
2017-09-19T17:23:02.296Z,8.00
2017-09-19T17:25:30.952Z,8.00
2017-09-19T17:27:59.725Z,8.10
2017-09-19T17:30:28.417Z,8.00
2017-09-19T17:32:57.852Z,8.00
2017-09-19T17:35:26.249Z,8.00
2017-09-19T17:37:54.673Z,8.00
2017-09-19T17:40:23.179Z,8.10
2017-09-19T17:42:51.578Z,8.00
2017-09-19T17:45:20.241Z,8.00
2017-09-19T17:47:48.927Z,8.00
2017-09-19T17:50:17.334Z,8.10
2017-09-19T17:52:46.770Z,8.10
2017-09-19T17:55:15.217Z,8.10
2017-09-19T17:57:43.877Z,8.10
2017-09-19T18:00:12.550Z,8.10
2017-09-19T18:02:41.252Z,8.00
2017-09-19T18:05:09.918Z,8.00
2017-09-19T18:07:38.585Z,7.90
2017-09-19T18:10:07.272Z,7.90
2017-09-19T18:12:35.942Z,7.90
2017-09-19T18:15:04.614Z,7.90
2017-09-19T18:17:33.049Z,7.80
2017-09-19T18:20:01.709Z,7.80
2017-09-19T18:22:30.373Z,7.80
2017-09-19T18:24:59.821Z,7.80
2017-09-19T18:27:28.493Z,7.80
2017-09-19T18:29:57.172Z,7.80
2017-09-19T18:32:25.590Z,7.70
2017-09-19T18:34:54.299Z,7.80
2017-09-19T18:37:22.701Z,7.80
2017-09-19T18:39:51.153Z,7.80
2017-09-19T18:42:19.817Z,7.80
2017-09-19T18:44:48.990Z,7.70
2017-09-19T18:47:17.413Z,7.70
2017-09-19T18:49:46.115Z,7.70
2017-09-19T18:52:14.513Z,7.70
2017-09-19T18:54:42.929Z,7.70
2017-09-19T18:57:11.368Z,7.70
2017-09-19T18:59:40.022Z,7.70
2017-09-19T19:02:08.427Z,7.80
2017-09-19T19:04:37.144Z,7.80
2017-09-19T19:07:05.556Z,7.80
2017-09-19T19:09:34.741Z,7.70
2017-09-19T19:12:03.441Z,7.70
2017-09-19T19:14:32.105Z,7.70
2017-09-19T19:17:00.772Z,7.70
2017-09-19T19:19:29.474Z,7.70
2017-09-19T19:21:58.435Z,7.70
2017-09-19T19:24:27.110Z,7.70
2017-09-19T19:26:55.793Z,7.60
2017-09-19T19:29:24.458Z,7.70
2017-09-19T19:31:53.121Z,7.70
2017-09-19T19:34:21.803Z,7.70
2017-09-19T19:36:55.287Z,7.70
2017-09-19T19:39:23.622Z,7.60
2017-09-19T19:41:52.144Z,7.60
2017-09-19T19:44:20.574Z,7.60
2017-09-19T19:46:49.332Z,7.60
2017-09-19T19:49:18.005Z,7.60
2017-09-19T19:51:47.421Z,7.60
2017-09-19T19:54:15.833Z,7.60
2017-09-19T19:56:45.009Z,7.50
2017-09-19T19:59:13.406Z,7.50
2017-09-19T20:01:42.610Z,7.60
2017-09-19T20:04:11.278Z,7.60
2017-09-19T20:06:39.735Z,7.60
2017-09-19T20:09:08.261Z,7.60
2017-09-19T20:11:36.666Z,7.60
2017-09-19T20:14:06.966Z,7.60
2017-09-19T20:16:36.779Z,7.60
2017-09-19T20:19:05.946Z,7.70
2017-09-19T20:21:35.167Z,7.70
2017-09-19T20:24:03.581Z,7.60
2017-09-19T20:26:32.244Z,7.60
2017-09-19T20:29:00.989Z,7.60
2017-09-19T20:31:30.414Z,7.70
2017-09-19T20:33:59.101Z,7.70
2017-09-19T20:36:27.789Z,7.70
2017-09-19T20:38:56.445Z,7.70
2017-09-19T20:41:26.101Z,7.70
2017-09-19T20:43:54.872Z,7.70
2017-09-19T20:46:24.325Z,7.50
2017-09-19T20:48:52.809Z,7.50
2017-09-19T20:51:21.478Z,7.60
2017-09-19T20:53:50.158Z,7.60
2017-09-19T20:56:18.845Z,7.60
2017-09-19T20:58:47.529Z,7.60
2017-09-19T21:01:16.194Z,7.60
2017-09-19T21:03:50.259Z,7.50
2017-09-19T21:06:24.427Z,7.50
2017-09-19T21:08:58.458Z,7.50
2017-09-19T21:11:32.497Z,7.50
2017-09-19T21:14:06.723Z,7.40
2017-09-19T21:16:40.797Z,7.40
2017-09-19T21:19:14.843Z,7.50
2017-09-19T21:21:43.501Z,7.40
2017-09-19T21:24:12.169Z,7.50
2017-09-19T21:26:40.586Z,7.50
2017-09-19T21:29:08.993Z,7.40
2017-09-19T21:31:37.394Z,7.40
2017-09-19T21:34:05.854Z,7.40
2017-09-19T21:36:35.286Z,7.50
2017-09-19T21:39:03.333Z,7.50
2017-09-19T21:41:32.040Z,7.50
2017-09-19T21:44:00.710Z,7.50
2017-09-19T21:46:29.393Z,7.40
2017-09-19T21:48:58.817Z,7.50
2017-09-19T21:51:27.229Z,7.50
2017-09-19T21:53:55.928Z,7.50
2017-09-19T21:56:24.624Z,7.40
2017-09-19T21:58:53.066Z,7.40
2017-09-19T22:01:21.753Z,7.40
2017-09-19T22:03:50.438Z,7.40
2017-09-19T22:06:18.838Z,7.40
2017-09-19T22:08:48.010Z,7.40
2017-09-19T22:11:16.738Z,7.40
2017-09-19T22:13:45.141Z,7.40
2017-09-19T22:16:13.871Z,7.30
2017-09-19T22:18:42.334Z,7.30
2017-09-19T22:21:10.769Z,7.30
2017-09-19T22:23:39.177Z,7.30
2017-09-19T22:26:07.864Z,7.30
2017-09-19T22:28:36.082Z,7.30
2017-09-19T22:31:04.482Z,7.30
2017-09-19T22:33:32.966Z,7.30
2017-09-19T22:36:01.622Z,7.30
2017-09-19T22:38:30.035Z,7.30
2017-09-19T22:40:58.477Z,7.30
2017-09-19T22:43:27.185Z,7.40
2017-09-19T22:45:56.378Z,7.40
2017-09-19T22:48:25.043Z,7.40
2017-09-19T22:50:53.723Z,7.40
2017-09-19T22:53:22.470Z,7.40
2017-09-19T22:55:50.922Z,7.40
2017-09-19T22:58:19.593Z,7.40
2017-09-19T23:00:48.302Z,7.40
2017-09-19T23:03:17.005Z,7.40
2017-09-19T23:05:45.695Z,7.40
2017-09-19T23:08:14.881Z,7.40
2017-09-19T23:10:43.281Z,7.40
2017-09-19T23:13:11.674Z,7.40
2017-09-19T23:15:40.368Z,7.40
2017-09-19T23:18:08.765Z,7.40
2017-09-19T23:20:37.221Z,7.40
2017-09-19T23:23:05.987Z,7.40
2017-09-19T23:25:34.711Z,7.40
2017-09-19T23:28:03.158Z,7.50
2017-09-19T23:30:31.549Z,7.40
2017-09-19T23:33:00.525Z,7.40
2017-09-19T23:35:29.705Z,7.50
2017-09-19T23:37:57.953Z,7.50
2017-09-19T23:40:26.370Z,7.50
2017-09-19T23:42:55.070Z,7.60
2017-09-19T23:45:23.738Z,7.50
2017-09-19T23:47:52.397Z,7.50
2017-09-19T23:50:20.829Z,7.50
2017-09-19T23:52:50.002Z,7.50
2017-09-19T23:55:18.661Z,7.50
2017-09-19T23:57:47.089Z,7.50
